AirNav   Phillips 66 Aviation Fuel
 
 585 users online  

4C3 Yalesville Heliport
Yalesville, Connecticut, USA

GOING TO YALESVILLE?


FAA INFORMATION EFFECTIVE 11 OCTOBER 2018

Location

FAA Identifier: 4C3
Lat/Long: 41-29-30.8000N / 072-48-40.2000W
41-29.513333N / 072-48.670000W
41.4918889 / -72.8111667
(estimated)
Elevation: 65 ft. / 20 m (estimated)
Variation: 14W (2000)
From city: 2 miles N of YALESVILLE, CT
Time zone: UTC -4 (UTC -5 during Standard Time)
Zip code: 06492

Heliport Operations

Heliport use: Open to the public
Activation date: 06/2002
Control tower: no
ARTCC: BOSTON CENTER
FSS: BRIDGEPORT FLIGHT SERVICE STATION
NOTAMs facility: BDR (NOTAM-D service available)
Attendance: SATURDAY 0900-1600 LOCAL, ALL MON-FRI 08:30 TO 17:00 LOCAL
Wind indicator: lighted
Segmented circle: no
Lights: PCL 123.50
Beacon: white-green-yellow (heliport)
ACTVT ROTG BCN - 123.50.

Heliport Communications

CTAF/UNICOM: 123.05
WX ASOS at MMK (1.3 nm NW): 134.925 (203-639-9405)
WX ASOS at HVN (14 nm S): PHONE 203-466-6205
WX AWOS-3PT at OXC (15 nm W): 132.975 (203-262-1190)
WX AWOS-3 at SNC (15 nm SE): 118.325 (860-526-1551)
WX ASOS at HFD (16 nm NE): PHONE 860-527-5837

Nearby radio navigation aids

VOR radial/distance  VOR name  Freq  Var
MADr346/11.9MADISON VOR/DME110.4013W
HFDr246/14.8HARTFORD VOR/DME114.9013W
BDRr047/24.4BRIDGEPORT VOR/DME108.8012W
CCCr012/33.7CALVERTON VOR/DME117.2013W
GONr300/35.5GROTON VOR/DME110.8514W
ORWr278/36.7NORWICH VOR/DME110.0014W
CMKr082/36.9CARMEL VOR/DME116.6012W
PWLr127/39.1PAWLING VOR/DME114.3012W

 
NDB name  Hdg/Dist  Freq  Var  ID
CLERA078/15.136214WJWE .--- .-- .

Heliport Services

Fuel available: 100LL JET-A
CALL IN ADVANCE FOR FUEL 203-294-8800
Parking: hangars and tiedowns
Airframe service: MAJOR
Powerplant service: MAJOR
Bottled oxygen: NONE
Bulk oxygen: NONE

Runway Information

Helipad H1

Dimensions: 65 x 65 ft. / 20 x 20 m
Surface: concrete, in good condition
Traffic pattern: leftleft
Markings: basic, in fair condition

Heliport Ownership and Management from official FAA records

Ownership: Privately-owned
Owner: UNITED CONCRETE PRODUCTS
173 CHURCH STREET, ATTEN: JONATHAN GAVIN
YALESVILLE, CT 06492
Phone 203-269-3119
Manager: ANDREW HAYDEN
AIROCEAN AVIATION, LLC, , 120 CHURCH STREET
YALESVILLE, CT 06492
Phone 203-294-8800

Heliport Operational Statistics

Aircraft operations: avg 62/month *
67% transient general aviation
33% air taxi
* for 12-month period ending 30 September 2015

Additional Remarks

PILOTS UNFAMILIAR WITH HELIPORT CONTACT 203-294-8800 PRIOR TO ARRIVAL FOR A BRIEFING ON CURRENT PROCEDURES.
FOR CD CTC YANKEE APCH AT 860-386-3597.

Instrument Procedures

There are no published instrument procedures at 4C3.

Some nearby airports with instrument procedures:

KMMK - Meriden Markham Municipal Airport (1 nm NW)
4B8 - Robertson Field Airport (12 nm N)
KHVN - Tweed-New Haven Airport (14 nm S)
KOXC - Waterbury-Oxford Airport (15 nm W)
KSNC - Chester Airport (15 nm SE)
KHFD - Hartford-Brainard Airport (16 nm NE)
 
Loc | Ops | Rwys | IFR | FBO | Links
Com | Nav | Svcs | Stats | Notes

Silver City Flying Club
 
Area around 4C3 (Yalesville Heliport)
 
Road maps at: MapQuest Bing Google
 
Aerial photo
WARNING: Photo may not be current or correct
Aerial photo of 4C3 (Yalesville Heliport)
Photo courtesy of AirOcean Aviation, LLC
Taken in October 2008
from a Schweizer 300 helicopter

Do you have a better or more recent aerial photo of Yalesville Heliport that you would like to share? If so, please send us your photo.

 
Sectional chart

 
Airport distance calculator
Flying to Yalesville Heliport? Find the distance to fly.

From to 4C3

Sunrise and sunset
Times for 16-Oct-2018
 Local
(UTC-4)
 Zulu
(UTC)
Morning civil twilight06:3710:37
Sunrise07:0511:05
Sunset18:0822:08
Evening civil twilight18:3622:36

Current date and time
Zulu (UTC)  16-Oct-2018 04:57:05
Local (UTC-4)  16-Oct-2018 00:57:05
 
METAR
KMMK 
2nm NW 
160434Z AUTO 29008G16KT 7SM RA SCT020 BKN027 OVC047 17/14 A2985 RMK AO2 P0003 T01670144 $
KHVN 
14nm S 
160353Z AUTO 25011G22KT 10SM SCT041 BKN060 OVC080 21/17 A2981 RMK AO2 PK WND 24026/0338 SLP094 T02110172 $
KOXC 
14nm W 
160420Z AUTO 27010G24KT 230V300 9SM -RA FEW014 SCT025 OVC041 14/13 A2988 RMK AO2 P0001 $
KSNC 
15nm SE 
160435Z AUTO 28010G17KT 240V320 10SM -DZ FEW014 BKN020 OVC031 18/16 A2983 RMK AO2
KHFD 
16nm NE 
160353Z 29008G17KT 9SM -RA FEW020 SCT027 OVC038 19/16 A2981 RMK AO2 RAE0254B10 PRESRR SLP093 P0006 T01890161
TAF
KBDR 
24nm SW 
160242Z 1603/1624 24014G24KT P6SM -SHRA SCT010 SCT025 BKN050 WS020/25050KT TEMPO 1603/1606 26020G30KT 3SM -SHRA BKN025 FM160600 28018G28KT P6SM SCT015 BKN050 FM160700 29013G24KT P6SM FEW035 BKN090 FM160900 30011G22KT P6SM FEW035 SCT120 SCT250 FM161200 31010G20KT P6SM FEW035 FM161600 27009KT P6SM FEW035
KBDL 
27nm N 
152019Z 1520/1624 19010KT P6SM OVC010 FM152300 20011KT 3SM -SHRA BR OVC015 FM160300 25011KT P6SM VCSH OVC035 FM160500 28013G26KT P6SM BKN050 FM161000 30009KT P6SM FEW250 FM162000 26007KT P6SM FEW250
NOTAMs
Click for the latest NOTAMs
NOTAMs are issued by the DoD/FAA and will open in a separate window not controlled by AirNav.

 

 
 

FBO, Fuel Providers, and Aircraft Ground Support

  
 Business Name 
 
 Contact 
 
 Services / Description 
 
Fuel Prices
 
Comments
  
 AirOcean Aviation, LLC
203-294-8800
[web site]
[email]
Airport management, Aviation fuel, Aircraft parking (ramp or tiedown), Hangars, Hangar leasing / sales, GPU / Power cart, Flight training, Aircraft rental, ...

More info about AirOcean Aviation, LLC
Phillips 66
100LL Jet A
FS $5.75 $5.25 
 Updated 04-Oct-2018
 
   write
FS=Full service
Update Fuel Prices
 

Would you like to see your business listed on this page?

 If your business provides an interesting product or service to pilots, flight crews, aircraft, or users of the Yalesville Heliport, you should consider listing it here.  To start the listing process, click on the button below
 
Add a business
 

Other Pages about Yalesville Heliport

Update a link
 
Copyright © AirNav, LLC. All rights reserved. Privacy Policy  Contact